createdAt,value
2023-09-30T00:00:02.078Z,4.40
2023-09-30T00:02:29.229Z,4.93
2023-09-30T00:04:56.356Z,4.15
2023-09-30T00:07:23.446Z,5.43
2023-09-30T00:09:51.965Z,4.60
2023-09-30T00:12:19.396Z,4.20
2023-09-30T00:14:46.668Z,4.40
2023-09-30T00:17:13.871Z,4.63
2023-09-30T00:19:41.019Z,4.25
2023-09-30T00:22:08.094Z,4.10
2023-09-30T00:24:35.419Z,3.90
2023-09-30T00:27:02.813Z,4.57
2023-09-30T00:29:29.986Z,4.20
2023-09-30T00:31:57.060Z,4.90
2023-09-30T00:34:24.131Z,4.90
2023-09-30T00:36:51.463Z,4.97
2023-09-30T00:39:18.607Z,4.40
2023-09-30T00:41:45.697Z,4.50
2023-09-30T00:44:12.718Z,5.45
2023-09-30T00:46:42.648Z,4.15
2023-09-30T00:49:11.375Z,4.40
2023-09-30T00:51:39.451Z,3.97
2023-09-30T00:54:07.370Z,4.00
2023-09-30T00:56:34.986Z,5.60
2023-09-30T00:59:02.319Z,7.03
2023-09-30T01:01:29.779Z,4.57
2023-09-30T01:03:57.265Z,4.65
2023-09-30T01:06:24.740Z,3.53
2023-09-30T01:08:52.151Z,4.28
2023-09-30T01:11:19.381Z,4.90
2023-09-30T01:13:48.484Z,4.03
2023-09-30T01:16:16.147Z,3.85
2023-09-30T01:18:44.443Z,4.38
2023-09-30T01:21:12.748Z,3.78
2023-09-30T01:23:40.167Z,5.57
2023-09-30T01:26:11.135Z,4.47
2023-09-30T01:28:38.302Z,4.10
2023-09-30T01:31:06.279Z,4.60
2023-09-30T01:33:34.253Z,4.03
2023-09-30T01:36:01.931Z,4.07
2023-09-30T01:38:29.115Z,4.03
2023-09-30T01:40:58.747Z,4.45
2023-09-30T01:43:27.973Z,3.95
2023-09-30T01:45:55.172Z,4.15
2023-09-30T01:48:22.394Z,4.20
2023-09-30T01:50:49.442Z,3.92
2023-09-30T01:53:16.637Z,4.60
2023-09-30T01:55:45.428Z,4.30
2023-09-30T01:58:12.719Z,4.57
2023-09-30T02:00:40.022Z,4.45
2023-09-30T02:03:08.504Z,3.90
2023-09-30T02:05:35.978Z,3.60
2023-09-30T02:08:07.062Z,4.68
2023-09-30T02:10:34.806Z,4.47
2023-09-30T02:13:02.369Z,3.45
2023-09-30T02:15:29.510Z,3.97
2023-09-30T02:17:56.813Z,4.53
2023-09-30T02:20:26.836Z,3.42
2023-09-30T02:22:55.351Z,4.38
2023-09-30T02:25:22.667Z,3.70
2023-09-30T02:27:50.783Z,3.88
2023-09-30T02:30:18.657Z,4.40
2023-09-30T02:32:47.539Z,4.45
2023-09-30T02:35:17.734Z,4.40
2023-09-30T02:37:45.127Z,4.60
2023-09-30T02:40:12.610Z,3.55
2023-09-30T02:42:41.065Z,4.80
2023-09-30T02:45:09.671Z,4.45
2023-09-30T02:47:38.104Z,4.47
2023-09-30T02:50:12.711Z,4.15
2023-09-30T02:52:42.903Z,4.50
2023-09-30T02:55:13.377Z,4.47
2023-09-30T02:57:40.908Z,4.68
2023-09-30T03:00:22.378Z,4.53
2023-09-30T03:02:58.588Z,4.85
2023-09-30T03:05:25.812Z,4.65
2023-09-30T03:07:53.016Z,4.72
2023-09-30T03:10:24.781Z,4.82
2023-09-30T03:12:52.930Z,4.63
2023-09-30T03:15:20.737Z,4.32
2023-09-30T03:17:50.260Z,4.50
2023-09-30T03:20:21.206Z,4.78
2023-09-30T03:22:48.988Z,4.57
2023-09-30T03:25:18.912Z,4.72
2023-09-30T03:27:49.115Z,4.32
2023-09-30T03:30:17.199Z,4.45
2023-09-30T03:32:44.880Z,5.30
2023-09-30T03:35:16.177Z,4.35
2023-09-30T03:37:46.756Z,4.70
2023-09-30T03:40:19.647Z,4.47
2023-09-30T03:42:50.593Z,4.30
2023-09-30T03:45:18.474Z,4.20
2023-09-30T03:47:46.922Z,4.97
2023-09-30T03:50:15.506Z,5.20
2023-09-30T03:52:45.712Z,4.80
2023-09-30T03:55:17.313Z,5.07
2023-09-30T03:57:52.495Z,5.93
2023-09-30T04:00:21.512Z,4.85
2023-09-30T04:03:00.839Z,4.95
2023-09-30T04:05:30.866Z,4.90
2023-09-30T04:07:58.056Z,5.40
2023-09-30T04:10:26.230Z,5.53
2023-09-30T04:12:53.550Z,5.55
2023-09-30T04:15:20.836Z,5.55
2023-09-30T04:17:49.552Z,5.97
2023-09-30T04:20:24.462Z,6.28
2023-09-30T04:22:52.431Z,5.90
2023-09-30T04:25:19.843Z,5.28
2023-09-30T04:27:49.609Z,5.68
2023-09-30T04:30:18.645Z,7.57
2023-09-30T04:32:45.882Z,6.43
2023-09-30T04:35:12.987Z,6.57
2023-09-30T04:37:40.327Z,6.25
2023-09-30T04:40:16.552Z,6.40
2023-09-30T04:42:45.680Z,5.72
2023-09-30T04:45:13.890Z,6.35
2023-09-30T04:47:41.160Z,6.43
2023-09-30T04:50:09.610Z,6.68
2023-09-30T04:52:36.779Z,6.70
2023-09-30T04:55:05.437Z,6.72
2023-09-30T04:57:35.480Z,6.40
2023-09-30T05:00:02.601Z,6.18
2023-09-30T05:02:29.679Z,6.70
2023-09-30T05:04:56.867Z,5.82
2023-09-30T05:07:24.059Z,6.30
2023-09-30T05:09:52.251Z,6.38
2023-09-30T05:12:19.461Z,6.47
2023-09-30T05:14:46.570Z,6.35
2023-09-30T05:17:14.406Z,5.30
2023-09-30T05:19:41.908Z,6.22
2023-09-30T05:22:08.957Z,5.60
2023-09-30T05:24:36.457Z,6.55
2023-09-30T05:27:03.695Z,5.50
2023-09-30T05:29:34.423Z,5.68
2023-09-30T05:32:01.657Z,6.40
2023-09-30T05:34:29.131Z,5.50
2023-09-30T05:36:56.320Z,5.60
2023-09-30T05:39:23.448Z,5.97
2023-09-30T05:41:50.795Z,7.07
2023-09-30T05:44:18.018Z,6.25
2023-09-30T05:46:46.592Z,5.38
2023-09-30T05:49:14.935Z,5.68
2023-09-30T05:51:42.835Z,5.97
2023-09-30T05:54:13.096Z,6.05
2023-09-30T05:56:41.208Z,5.28
2023-09-30T05:59:08.637Z,6.00
2023-09-30T06:01:37.126Z,5.85
2023-09-30T06:04:04.648Z,5.50
2023-09-30T06:06:31.917Z,5.38
2023-09-30T06:09:01.900Z,5.05
2023-09-30T06:11:32.139Z,6.18
2023-09-30T06:14:02.327Z,6.43
2023-09-30T06:16:32.896Z,7.63
2023-09-30T06:19:00.295Z,17.98
2023-09-30T06:21:30.503Z,8.45
2023-09-30T06:23:57.917Z,7.53
2023-09-30T06:26:30.652Z,12.52
2023-09-30T06:29:00.259Z,11.00
2023-09-30T06:31:28.668Z,8.50
2023-09-30T06:33:59.589Z,5.93
2023-09-30T06:36:30.027Z,6.38
2023-09-30T06:38:57.482Z,5.32
2023-09-30T06:41:24.955Z,6.32
2023-09-30T06:43:53.099Z,6.65
2023-09-30T06:46:20.328Z,7.15
2023-09-30T06:48:47.439Z,5.43
2023-09-30T06:51:18.926Z,8.43
2023-09-30T06:53:47.341Z,8.00
2023-09-30T06:56:16.062Z,14.75
2023-09-30T06:58:45.895Z,15.23
2023-09-30T07:01:18.560Z,8.80
2023-09-30T07:03:49.182Z,8.45
2023-09-30T07:06:24.059Z,14.98
2023-09-30T07:08:54.277Z,11.57
2023-09-30T07:11:30.290Z,9.35
2023-09-30T07:14:01.587Z,7.90
2023-09-30T07:16:29.019Z,8.88
2023-09-30T07:18:56.757Z,6.68
2023-09-30T07:21:24.321Z,8.15
2023-09-30T07:23:51.757Z,13.30
2023-09-30T07:26:18.786Z,8.65
2023-09-30T07:28:48.632Z,7.47
2023-09-30T07:31:15.866Z,4.78
2023-09-30T07:33:43.249Z,7.53
2023-09-30T07:36:10.397Z,5.60
2023-09-30T07:38:38.324Z,7.00
2023-09-30T07:41:06.341Z,7.35
2023-09-30T07:43:34.745Z,6.03
2023-09-30T07:46:09.914Z,5.68
2023-09-30T07:48:37.198Z,5.55
2023-09-30T07:51:11.255Z,4.97
2023-09-30T07:53:38.310Z,5.38
2023-09-30T07:56:05.458Z,4.88
2023-09-30T07:58:33.308Z,5.22
2023-09-30T08:01:01.404Z,4.88
2023-09-30T08:03:29.622Z,4.78
2023-09-30T08:05:57.248Z,4.90
2023-09-30T08:08:25.296Z,4.57
2023-09-30T08:10:56.783Z,4.70
2023-09-30T08:13:27.141Z,4.00
2023-09-30T08:15:54.443Z,3.60
2023-09-30T08:18:21.663Z,5.00
2023-09-30T08:20:50.221Z,3.45
2023-09-30T08:23:17.346Z,4.53
2023-09-30T08:25:46.661Z,3.97
2023-09-30T08:28:13.976Z,4.25
2023-09-30T08:30:42.069Z,4.03
2023-09-30T08:33:09.476Z,3.92
2023-09-30T08:35:40.560Z,4.38
2023-09-30T08:38:07.654Z,4.00
2023-09-30T08:40:45.303Z,3.28
2023-09-30T08:43:13.251Z,3.25
2023-09-30T08:45:43.140Z,3.63
2023-09-30T08:48:13.078Z,3.30
2023-09-30T08:50:42.075Z,3.17
2023-09-30T08:53:12.939Z,3.55
2023-09-30T08:55:44.623Z,3.63
2023-09-30T09:00:41.839Z,3.47
2023-09-30T09:03:09.918Z,3.80
2023-09-30T09:05:37.150Z,2.75
2023-09-30T09:08:04.584Z,2.45
2023-09-30T09:10:31.739Z,3.45
2023-09-30T09:12:59.874Z,3.28
2023-09-30T09:15:29.751Z,3.08
2023-09-30T09:17:57.207Z,2.92
2023-09-30T09:20:26.934Z,3.05
2023-09-30T09:22:56.607Z,2.72
2023-09-30T09:25:24.572Z,3.15
2023-09-30T09:27:52.811Z,3.13
2023-09-30T09:30:25.437Z,2.97
2023-09-30T09:32:59.024Z,2.60
2023-09-30T09:35:30.425Z,2.35
2023-09-30T09:37:58.364Z,2.45
2023-09-30T09:40:30.265Z,2.33
2023-09-30T09:42:58.261Z,2.50
2023-09-30T09:45:28.987Z,2.50
2023-09-30T09:47:56.209Z,2.70
2023-09-30T09:50:24.182Z,2.38
2023-09-30T09:52:53.297Z,2.67
2023-09-30T09:55:23.052Z,2.55
2023-09-30T09:57:51.006Z,2.97
2023-09-30T10:00:24.976Z,2.60
2023-09-30T10:02:53.493Z,2.72
2023-09-30T10:05:22.187Z,2.55
2023-09-30T10:07:56.705Z,2.35
2023-09-30T10:10:26.019Z,2.50
2023-09-30T10:12:53.262Z,2.17
2023-09-30T10:15:26.345Z,2.80
2023-09-30T10:18:10.314Z,2.20
2023-09-30T10:20:49.959Z,2.50
2023-09-30T10:23:22.417Z,2.17
2023-09-30T10:25:52.654Z,2.30
2023-09-30T10:28:38.627Z,2.28
2023-09-30T10:31:15.032Z,2.10
2023-09-30T10:34:02.701Z,2.20
2023-09-30T10:36:35.398Z,2.88
2023-09-30T10:39:04.064Z,2.33
2023-09-30T10:41:40.720Z,2.20
2023-09-30T10:44:26.442Z,2.50
2023-09-30T10:46:59.042Z,2.30
2023-09-30T10:49:26.151Z,2.05
2023-09-30T10:51:55.208Z,2.42
2023-09-30T10:54:26.926Z,2.38
2023-09-30T10:56:54.906Z,2.00
2023-09-30T10:59:26.306Z,2.08
2023-09-30T11:04:22.537Z,2.13
2023-09-30T11:06:52.529Z,2.22
2023-09-30T11:09:22.561Z,1.60
2023-09-30T11:11:51.712Z,2.17
2023-09-30T11:14:21.789Z,2.00
2023-09-30T11:16:50.708Z,2.28
2023-09-30T11:19:19.494Z,2.58
2023-09-30T11:21:46.994Z,1.77
2023-09-30T11:24:15.435Z,3.03
2023-09-30T11:26:42.783Z,2.03
2023-09-30T11:29:14.863Z,2.13
2023-09-30T11:31:43.851Z,2.10
2023-09-30T11:34:12.695Z,2.00
2023-09-30T11:36:57.978Z,2.08
2023-09-30T11:39:29.722Z,2.05
2023-09-30T11:41:58.348Z,1.58
2023-09-30T11:44:27.723Z,1.88
2023-09-30T11:47:01.918Z,2.03
2023-09-30T11:49:39.494Z,1.80
2023-09-30T11:52:10.802Z,1.65
2023-09-30T11:54:42.492Z,1.50
2023-09-30T11:57:11.219Z,1.90
2023-09-30T11:59:40.338Z,1.85
2023-09-30T12:02:15.014Z,1.75
2023-09-30T12:04:44.907Z,2.25
2023-09-30T12:07:12.794Z,1.48
2023-09-30T12:09:40.942Z,1.80
2023-09-30T12:12:12.826Z,2.28
2023-09-30T12:14:40.813Z,1.70
2023-09-30T12:17:12.882Z,1.92
2023-09-30T12:19:42.463Z,2.22
2023-09-30T12:22:11.461Z,1.98
2023-09-30T12:24:39.157Z,2.00
2023-09-30T12:27:07.048Z,1.75
2023-09-30T12:29:34.257Z,1.35
2023-09-30T12:32:02.292Z,1.95
2023-09-30T12:34:29.877Z,1.80
2023-09-30T12:36:58.134Z,1.50
2023-09-30T12:39:27.212Z,1.58
2023-09-30T12:41:55.512Z,1.50
2023-09-30T12:44:24.070Z,1.65
2023-09-30T12:46:52.504Z,1.65
2023-09-30T12:49:19.992Z,1.80
2023-09-30T12:51:47.354Z,1.52
2023-09-30T12:54:15.943Z,1.95
2023-09-30T12:56:43.578Z,1.63
2023-09-30T12:59:10.816Z,1.90
2023-09-30T13:01:37.972Z,1.55
2023-09-30T13:04:09.269Z,1.40
2023-09-30T13:06:37.050Z,1.25
2023-09-30T13:09:06.033Z,1.75
2023-09-30T13:11:35.722Z,1.60
2023-09-30T13:14:04.412Z,1.92
2023-09-30T13:16:31.574Z,1.33
2023-09-30T13:18:58.919Z,1.05
2023-09-30T13:21:26.807Z,1.50
2023-09-30T13:23:55.997Z,1.42
2023-09-30T13:26:23.326Z,1.70
2023-09-30T13:28:50.372Z,1.38
2023-09-30T13:31:18.013Z,1.70
2023-09-30T13:33:45.279Z,1.50
2023-09-30T13:36:12.493Z,1.70
2023-09-30T13:38:39.585Z,1.15
2023-09-30T13:41:06.623Z,2.10
2023-09-30T13:43:33.702Z,1.55
2023-09-30T13:46:05.033Z,1.77
2023-09-30T13:48:32.334Z,1.77
2023-09-30T13:51:10.128Z,1.45
2023-09-30T13:53:37.760Z,1.20
2023-09-30T13:56:05.004Z,1.40
2023-09-30T13:58:32.183Z,1.50
2023-09-30T14:00:59.678Z,1.30
2023-09-30T14:03:27.017Z,1.45
2023-09-30T14:06:00.431Z,1.33
2023-09-30T14:08:27.518Z,1.38
2023-09-30T14:10:54.566Z,1.55
2023-09-30T14:13:21.653Z,1.15
2023-09-30T14:15:48.878Z,1.30
2023-09-30T14:18:16.227Z,1.35
2023-09-30T14:20:43.649Z,1.20
2023-09-30T14:23:10.974Z,1.45
2023-09-30T14:25:38.100Z,1.30
2023-09-30T14:28:06.475Z,1.55
2023-09-30T14:30:34.616Z,1.20
2023-09-30T14:33:02.156Z,1.40
2023-09-30T14:35:29.391Z,1.30
2023-09-30T14:37:58.378Z,1.13
2023-09-30T14:40:25.657Z,1.63
2023-09-30T14:42:53.035Z,1.45
2023-09-30T14:45:21.762Z,1.42
2023-09-30T14:47:49.146Z,1.23
2023-09-30T14:50:17.088Z,1.70
2023-09-30T14:52:44.185Z,1.40
2023-09-30T14:55:11.493Z,1.98
2023-09-30T14:57:38.735Z,1.45
2023-09-30T15:00:07.756Z,1.17
2023-09-30T15:02:35.192Z,1.20
2023-09-30T15:05:02.308Z,1.17
2023-09-30T15:07:29.405Z,1.45
2023-09-30T15:09:56.600Z,1.55
2023-09-30T15:12:23.661Z,1.65
2023-09-30T15:14:52.573Z,1.42
2023-09-30T15:17:20.044Z,1.30
2023-09-30T15:19:47.308Z,1.60
2023-09-30T15:22:15.730Z,1.10
2023-09-30T15:24:42.990Z,1.10
2023-09-30T15:27:10.147Z,1.40
2023-09-30T15:29:37.494Z,1.20
2023-09-30T15:32:05.998Z,1.33
2023-09-30T15:34:33.260Z,1.20
2023-09-30T15:37:00.471Z,1.05
2023-09-30T15:39:27.580Z,1.45
2023-09-30T15:41:54.796Z,1.77
2023-09-30T15:44:21.953Z,1.50
2023-09-30T15:46:49.031Z,1.58
2023-09-30T15:49:16.288Z,1.65
2023-09-30T15:51:43.431Z,1.42
2023-09-30T15:54:10.679Z,1.65
2023-09-30T15:56:49.967Z,1.30
2023-09-30T15:59:23.271Z,1.15
2023-09-30T16:01:50.593Z,1.73
2023-09-30T16:04:17.812Z,1.17
2023-09-30T16:06:45.006Z,1.67
2023-09-30T16:09:12.238Z,1.55
2023-09-30T16:11:39.286Z,1.33
2023-09-30T16:14:07.207Z,1.83
2023-09-30T16:16:34.842Z,1.73
2023-09-30T16:19:02.016Z,1.50
2023-09-30T16:21:29.547Z,1.60
2023-09-30T16:23:56.863Z,2.00
2023-09-30T16:26:24.118Z,1.48
2023-09-30T16:28:52.693Z,1.40
2023-09-30T16:31:20.085Z,1.50
2023-09-30T16:33:47.331Z,1.85
2023-09-30T16:36:15.556Z,1.65
2023-09-30T16:38:42.852Z,1.75
2023-09-30T16:41:10.002Z,1.25
2023-09-30T16:43:37.487Z,1.90
2023-09-30T16:46:05.884Z,2.72
2023-09-30T16:48:33.274Z,2.25
2023-09-30T16:51:00.811Z,1.80
2023-09-30T16:53:28.733Z,3.35
2023-09-30T16:55:55.847Z,1.65
2023-09-30T16:58:22.950Z,2.20
2023-09-30T17:00:50.402Z,2.30
2023-09-30T17:03:17.578Z,2.38
2023-09-30T17:05:44.805Z,1.50
2023-09-30T17:08:13.114Z,1.85
2023-09-30T17:10:40.418Z,1.88
2023-09-30T17:13:07.575Z,2.22
2023-09-30T17:15:35.162Z,1.30
2023-09-30T17:18:02.476Z,1.63
2023-09-30T17:20:30.393Z,1.58
2023-09-30T17:22:57.727Z,1.65
2023-09-30T17:25:27.145Z,2.00
2023-09-30T17:27:54.406Z,2.08
2023-09-30T17:30:38.260Z,2.00
2023-09-30T17:33:08.428Z,1.90
2023-09-30T17:35:39.794Z,2.25
2023-09-30T17:38:07.003Z,5.30
2023-09-30T17:40:34.102Z,7.20
2023-09-30T17:43:01.286Z,5.68
2023-09-30T17:45:28.920Z,4.68
2023-09-30T17:47:56.153Z,5.10
2023-09-30T17:50:23.334Z,4.53
2023-09-30T17:52:51.791Z,3.28
2023-09-30T17:55:18.874Z,3.65
2023-09-30T17:57:46.493Z,3.78
2023-09-30T18:00:14.526Z,3.38
2023-09-30T18:02:41.696Z,2.60
2023-09-30T18:05:09.598Z,2.88
2023-09-30T18:07:36.736Z,2.50
2023-09-30T18:10:04.418Z,2.47
2023-09-30T18:12:31.574Z,2.53
2023-09-30T18:15:00.215Z,2.63
2023-09-30T18:17:27.503Z,2.20
2023-09-30T18:19:54.744Z,3.13
2023-09-30T18:22:21.950Z,2.60
2023-09-30T18:24:49.212Z,2.72
2023-09-30T18:27:16.394Z,2.42
2023-09-30T18:29:44.475Z,2.80
2023-09-30T18:32:12.013Z,2.42
2023-09-30T18:34:39.175Z,2.72
2023-09-30T18:37:06.505Z,2.78
2023-09-30T18:39:33.917Z,3.08
2023-09-30T18:42:01.085Z,3.03
2023-09-30T18:44:28.259Z,3.10
2023-09-30T18:46:55.574Z,4.97
2023-09-30T18:49:22.838Z,8.10
2023-09-30T18:51:51.541Z,7.10
2023-09-30T18:54:18.999Z,6.63
2023-09-30T18:56:47.524Z,6.65
2023-09-30T18:59:21.689Z,6.28
2023-09-30T19:01:52.380Z,4.65
2023-09-30T19:04:19.905Z,3.65
2023-09-30T19:06:47.460Z,2.83
2023-09-30T19:09:15.576Z,2.95
2023-09-30T19:11:45.026Z,3.65
2023-09-30T19:14:14.657Z,3.40
2023-09-30T19:16:44.768Z,3.17
2023-09-30T19:19:12.934Z,3.17
2023-09-30T19:21:40.599Z,3.00
2023-09-30T19:24:08.432Z,3.45
2023-09-30T19:26:36.519Z,4.07
2023-09-30T19:29:05.259Z,3.33
2023-09-30T19:31:32.852Z,5.78
2023-09-30T19:34:00.137Z,4.82
2023-09-30T19:36:28.698Z,5.00
2023-09-30T19:38:56.068Z,3.95
2023-09-30T19:41:23.475Z,3.60
2023-09-30T19:43:51.839Z,3.03
2023-09-30T19:46:19.297Z,3.22
2023-09-30T19:48:46.766Z,2.92
2023-09-30T19:51:22.914Z,3.42
2023-09-30T19:53:50.914Z,2.75
2023-09-30T19:56:17.996Z,3.08
2023-09-30T19:58:45.077Z,2.42
2023-09-30T20:01:13.114Z,2.70
2023-09-30T20:03:40.372Z,2.88
2023-09-30T20:06:21.058Z,3.38
2023-09-30T20:08:49.976Z,4.07
2023-09-30T20:11:28.815Z,3.92
2023-09-30T20:13:57.433Z,3.05
2023-09-30T20:16:24.966Z,3.70
2023-09-30T20:18:52.471Z,3.05
2023-09-30T20:21:21.724Z,2.50
2023-09-30T20:23:51.072Z,2.88
2023-09-30T20:26:27.858Z,3.20
2023-09-30T20:28:58.225Z,2.90
2023-09-30T20:31:27.384Z,3.55
2023-09-30T20:33:55.304Z,2.63
2023-09-30T20:36:23.431Z,2.92
2023-09-30T20:38:50.558Z,3.55
2023-09-30T20:41:18.154Z,4.97
2023-09-30T20:43:45.838Z,5.10
2023-09-30T20:46:14.196Z,4.70
2023-09-30T20:48:43.437Z,14.55
2023-09-30T20:51:11.248Z,7.95
2023-09-30T20:53:40.148Z,6.55
2023-09-30T20:56:12.105Z,6.57
2023-09-30T20:58:40.191Z,7.38
2023-09-30T21:01:10.737Z,6.07
2023-09-30T21:03:38.726Z,5.45
2023-09-30T21:06:07.625Z,3.75
2023-09-30T21:08:37.675Z,3.83
2023-09-30T21:11:08.708Z,5.40
2023-09-30T21:13:36.150Z,3.25
2023-09-30T21:16:04.876Z,4.40
2023-09-30T21:18:33.651Z,3.85
2023-09-30T21:21:01.229Z,3.75
2023-09-30T21:23:29.221Z,3.35
2023-09-30T21:25:56.951Z,2.75
2023-09-30T21:28:24.932Z,3.30
2023-09-30T21:30:52.287Z,4.25
2023-09-30T21:33:19.374Z,3.90
2023-09-30T21:35:58.310Z,3.88
2023-09-30T21:38:26.119Z,3.85
2023-09-30T21:40:53.412Z,3.90
2023-09-30T21:43:20.773Z,5.30
2023-09-30T21:45:47.977Z,4.32
2023-09-30T21:48:15.084Z,4.22
2023-09-30T21:50:48.350Z,3.65
2023-09-30T21:53:16.194Z,3.35
2023-09-30T21:55:43.857Z,3.05
2023-09-30T21:58:10.936Z,2.90
2023-09-30T22:00:39.847Z,2.60
2023-09-30T22:03:10.165Z,2.92
2023-09-30T22:05:52.006Z,2.95
2023-09-30T22:08:26.458Z,2.78
2023-09-30T22:10:55.222Z,3.05
2023-09-30T22:13:23.918Z,3.08
2023-09-30T22:15:55.405Z,2.58
2023-09-30T22:20:53.688Z,6.22
2023-09-30T22:23:20.872Z,3.03
2023-09-30T22:25:49.965Z,2.55
2023-09-30T22:28:18.190Z,2.53
2023-09-30T22:30:47.475Z,3.05
2023-09-30T22:33:15.881Z,2.78
2023-09-30T22:35:43.118Z,2.97
2023-09-30T22:38:10.526Z,4.72
2023-09-30T22:40:37.964Z,4.82
2023-09-30T22:43:08.095Z,3.00
2023-09-30T22:45:35.707Z,3.05
2023-09-30T22:48:03.844Z,3.40
2023-09-30T22:50:33.742Z,2.92
2023-09-30T22:53:02.125Z,3.03
2023-09-30T22:55:29.232Z,3.17
2023-09-30T22:57:56.703Z,3.75
2023-09-30T23:00:28.377Z,3.85
2023-09-30T23:02:56.324Z,3.17
2023-09-30T23:05:26.319Z,2.97
2023-09-30T23:07:53.465Z,3.08
2023-09-30T23:10:20.919Z,3.30
2023-09-30T23:12:50.173Z,3.10
2023-09-30T23:15:19.651Z,3.47
2023-09-30T23:17:48.770Z,4.43
2023-09-30T23:20:21.695Z,3.85
2023-09-30T23:22:54.287Z,2.95
2023-09-30T23:25:36.181Z,3.40
2023-09-30T23:28:04.592Z,3.92
2023-09-30T23:30:33.811Z,3.38
2023-09-30T23:33:07.556Z,3.50
2023-09-30T23:35:37.569Z,3.95
2023-09-30T23:38:07.519Z,3.90
2023-09-30T23:40:35.124Z,3.83
2023-09-30T23:43:03.308Z,8.23
2023-09-30T23:45:36.078Z,3.63
2023-09-30T23:48:08.358Z,3.78
2023-09-30T23:50:36.985Z,3.42
2023-09-30T23:53:07.753Z,3.50
2023-09-30T23:55:37.495Z,3.60
2023-09-30T23:58:16.569Z,3.40
